Time;durP1;ratioP1;P1;durP2;ratioP2;P2;SDS_P1;SDS_P2;PMS_P1;PMS_P2;Temp;Humidity;BMP_temperature;BMP_pressure;BME280_temperature;BME280_humidity;BME280_pressure;Samples;Min_cycle;Max_cycle;Signal;HPM_P1;HPM_P2
2021/09/30 00:01:11;;;;;;;4.70;1.98;;;9.40;99.90;;;;;;12475951;28;20446;-34
2021/09/30 00:07:13;;;;;;;5.57;2.15;;;9.40;99.90;;;;;;12514649;28;20158;-38
2021/09/30 00:45:41;;;;;;;7.55;2.80;;;9.20;99.90;;;;;;12500201;28;20788;-35
2021/09/30 00:51:53;;;;;;;6.05;2.80;;;9.20;99.90;;;;;;12498138;28;20099;-39
2021/09/30 02:28:51;;;;;;;7.68;4.20;;;9.00;99.90;;;;;;12516895;28;20057;-36
2021/09/30 02:38:57;;;;;;;9.52;4.38;;;9.00;99.90;;;;;;12513431;28;20489;-39
2021/09/30 03:00:34;;;;;;;8.50;4.55;;;9.00;99.90;;;;;;12517535;28;20586;-35
2021/09/30 03:06:37;;;;;;;7.38;4.10;;;9.00;99.90;;;;;;12516214;28;20148;-39
2021/09/30 03:12:40;;;;;;;5.47;4.05;;;9.00;99.90;;;;;;12514791;28;20735;-39
2021/09/30 03:24:48;;;;;;;6.10;4.22;;;8.90;99.90;;;;;;12516513;28;20053;-40
2021/09/30 03:30:55;;;;;;;6.72;4.00;;;8.90;99.90;;;;;;12516397;28;20041;-39
2021/09/30 03:36:57;;;;;;;8.32;4.07;;;8.90;99.90;;;;;;12516319;28;20045;-39
2021/09/30 03:42:59;;;;;;;6.53;3.70;;;8.90;99.90;;;;;;12514660;28;20115;-39
2021/09/30 03:49:07;;;;;;;10.25;4.30;;;8.90;99.90;;;;;;12511994;28;20053;-39
2021/09/30 04:01:15;;;;;;;7.40;4.60;;;8.90;99.90;;;;;;12514050;28;20070;-35
2021/09/30 04:07:18;;;;;;;8.37;4.00;;;8.80;99.90;;;;;;12515427;28;20651;-39
2021/09/30 04:13:20;;;;;;;8.25;4.10;;;8.80;99.90;;;;;;12514156;28;20108;-35
2021/09/30 04:19:22;;;;;;;8.73;4.93;;;8.90;99.90;;;;;;12516555;28;20057;-40
2021/09/30 04:25:24;;;;;;;11.43;5.25;;;8.90;99.90;;;;;;12514466;28;20049;-35
2021/09/30 04:31:26;;;;;;;12.20;6.32;;;9.00;99.90;;;;;;12515327;28;20430;-35
2021/09/30 04:37:28;;;;;;;9.25;6.10;;;9.00;99.90;;;;;;12515328;28;20179;-36
2021/09/30 04:43:30;;;;;;;9.98;6.22;;;9.00;99.90;;;;;;12513264;28;20053;-35
2021/09/30 04:49:32;;;;;;;7.57;5.72;;;9.00;99.90;;;;;;12513689;28;20061;-35
2021/09/30 04:55:33;;;;;;;13.00;6.00;;;8.90;99.90;;;;;;12509762;28;20141;-39
2021/09/30 05:01:35;;;;;;;8.40;5.35;;;9.00;99.90;;;;;;12514870;28;20049;-35
2021/09/30 05:07:37;;;;;;;11.82;6.18;;;8.90;99.90;;;;;;12510851;28;20056;-35
2021/09/30 05:13:41;;;;;;;8.18;5.65;;;8.90;99.90;;;;;;12514338;28;20095;-35
2021/09/30 05:19:43;;;;;;;11.63;6.63;;;8.80;99.90;;;;;;12515538;28;20084;-35
2021/09/30 05:25:47;;;;;;;13.43;6.50;;;8.90;99.90;;;;;;12513763;28;20299;-38
2021/09/30 05:31:49;;;;;;;9.82;6.53;;;8.90;99.90;;;;;;12513040;28;20585;-34
2021/09/30 05:37:51;;;;;;;11.10;6.55;;;9.00;99.90;;;;;;12511402;28;20053;-39
2021/09/30 05:43:57;;;;;;;13.75;7.10;;;9.00;99.90;;;;;;12509625;28;20049;-36
2021/09/30 05:49:58;;;;;;;15.30;8.20;;;9.00;99.90;;;;;;12511737;28;20167;-40
2021/09/30 05:56:00;;;;;;;15.43;8.13;;;9.00;99.90;;;;;;12508981;28;20096;-39
2021/09/30 06:14:27;;;;;;;13.63;7.32;;;8.80;99.90;;;;;;12518493;28;20041;-39
2021/09/30 06:20:29;;;;;;;;;;;8.80;99.90;;;;;;12523920;28;20041;-34
2021/09/30 06:26:31;;;;;;;11.98;5.93;;;8.90;99.90;;;;;;12519014;28;19925;-35
2021/09/30 06:32:33;;;;;;;12.95;5.88;;;9.00;99.90;;;;;;12518506;28;20061;-36
2021/09/30 06:38:34;;;;;;;18.42;5.88;;;9.00;99.90;;;;;;12520213;28;20457;-35
2021/09/30 06:44:37;;;;;;;8.55;4.97;;;9.00;99.90;;;;;;12517528;28;20079;-39
2021/09/30 06:50:39;;;;;;;11.77;4.82;;;9.10;99.90;;;;;;12518697;28;20049;-35
2021/09/30 06:56:40;;;;;;;10.23;4.18;;;9.20;99.90;;;;;;12519080;28;20053;-40
2021/09/30 07:02:43;;;;;;;8.25;4.40;;;9.30;99.90;;;;;;12517756;28;20430;-39
2021/09/30 07:08:45;;;;;;;10.73;3.50;;;9.30;99.90;;;;;;12521012;28;21019;-35
2021/09/30 07:14:47;;;;;;;7.32;3.45;;;9.50;99.90;;;;;;12517074;28;20388;-35
2021/09/30 07:20:53;;;;;;;11.48;3.42;;;9.60;99.90;;;;;;12520156;28;20052;-35
2021/09/30 07:26:56;;;;;;;9.82;3.50;;;9.70;99.90;;;;;;12515032;28;20056;-35
2021/09/30 07:32:58;;;;;;;10.68;3.63;;;9.80;99.90;;;;;;12516579;28;20114;-40
2021/09/30 07:39:00;;;;;;;7.10;3.00;;;9.90;99.90;;;;;;12516075;28;20071;-39
2021/09/30 07:45:02;;;;;;;11.38;2.90;;;10.10;99.90;;;;;;12516267;28;20053;-39
2021/09/30 07:51:04;;;;;;;8.27;2.88;;;10.20;99.90;;;;;;12515524;28;20171;-38
2021/09/30 07:57:06;;;;;;;13.95;3.97;;;10.40;99.90;;;;;;12517042;28;20673;-44
2021/09/30 08:03:09;;;;;;;7.97;2.63;;;10.50;99.90;;;;;;12513129;28;20456;-35
2021/09/30 08:09:11;;;;;;;11.85;3.20;;;10.80;99.90;;;;;;12514238;28;20045;-35
2021/09/30 08:15:13;;;;;;;8.52;2.67;;;10.80;99.90;;;;;;12515253;28;20044;-40
2021/09/30 08:21:15;;;;;;;8.65;2.78;;;11.00;99.90;;;;;;12516137;28;20042;-35
2021/09/30 08:27:17;;;;;;;9.15;2.53;;;11.10;99.90;;;;;;12515250;28;20126;-35
2021/09/30 08:33:24;;;;;;;11.43;2.65;;;11.30;99.90;;;;;;12516854;28;20087;-40
2021/09/30 08:39:26;;;;;;;8.57;2.70;;;11.40;99.90;;;;;;12513121;28;20107;-35
2021/09/30 08:45:28;;;;;;;7.95;3.03;;;11.50;99.90;;;;;;12513756;28;20106;-39
2021/09/30 08:51:30;;;;;;;13.65;2.80;;;11.70;99.90;;;;;;12514602;28;20044;-35
2021/09/30 08:57:32;;;;;;;13.77;2.45;;;11.80;99.90;;;;;;12513204;28;20079;-40
2021/09/30 09:03:45;;;;;;;11.88;2.25;;;12.00;99.90;;;;;;12509085;28;20064;-40
2021/09/30 09:09:50;;;;;;;10.98;2.28;;;12.20;99.90;;;;;;12512788;28;20049;-35
2021/09/30 09:16:00;;;;;;;10.70;2.33;;;12.40;99.90;;;;;;12514014;28;20148;-40
2021/09/30 09:22:14;;;;;;;8.40;1.70;;;12.50;99.90;;;;;;12511023;28;20072;-39
2021/09/30 09:28:19;;;;;;;8.63;2.53;;;12.60;99.90;;;;;;12510512;28;20118;-35
2021/09/30 09:34:36;;;;;;;9.10;1.90;;;12.80;99.90;;;;;;12508026;28;20360;-35
2021/09/30 09:40:38;;;;;;;9.40;1.67;;;13.00;99.90;;;;;;12514012;28;20510;-35
2021/09/30 09:46:40;;;;;;;5.68;1.48;;;13.10;99.90;;;;;;12517635;28;20198;-35
2021/09/30 09:53:09;;;;;;;7.85;1.70;;;13.20;99.90;;;;;;12520376;28;20048;-39
2021/09/30 09:59:11;;;;;;;9.20;1.83;;;13.30;99.90;;;;;;12520383;28;20090;-39
2021/09/30 10:05:13;;;;;;;7.22;1.80;;;13.50;99.90;;;;;;12520556;28;20422;-40
2021/09/30 10:11:14;;;;;;;8.70;1.52;;;13.30;99.90;;;;;;12521797;28;20144;-35
2021/09/30 10:17:16;;;;;;;8.50;1.92;;;13.80;99.90;;;;;;12520314;28;20114;-35
2021/09/30 10:23:49;;;;;;;8.93;1.75;;;13.90;99.90;;;;;;12521162;28;20052;-39
2021/09/30 10:29:53;;;;;;;10.10;1.73;;;13.80;99.90;;;;;;12518914;28;20064;-40
2021/09/30 10:35:55;;;;;;;8.15;1.70;;;13.90;99.90;;;;;;12521899;28;20160;-40
2021/09/30 10:42:03;;;;;;;8.65;1.73;;;14.10;99.90;;;;;;12519174;28;20072;-39
2021/09/30 10:48:23;;;;;;;10.60;1.67;;;13.80;99.90;;;;;;12520357;28;20048;-35
2021/09/30 10:54:25;;;;;;;8.60;1.55;;;13.80;99.90;;;;;;12522076;28;20464;-39
2021/09/30 11:00:30;;;;;;;6.80;1.38;;;13.60;99.90;;;;;;12522831;28;20079;-35
2021/09/30 11:06:32;;;;;;;6.28;1.27;;;13.90;99.90;;;;;;12520245;28;20053;-35
2021/09/30 11:12:34;;;;;;;8.40;1.65;;;14.00;99.90;;;;;;12519121;28;20102;-40
2021/09/30 11:18:53;;;;;;;9.80;1.67;;;13.80;99.90;;;;;;12518316;28;20053;-35
2021/09/30 11:24:57;;;;;;;9.70;1.80;;;13.80;99.90;;;;;;12477788;28;20060;-36
2021/09/30 11:31:24;;;;;;;9.50;1.57;;;13.80;99.90;;;;;;12469133;28;20107;-42
2021/09/30 11:37:40;;;;;;;8.32;1.48;;;14.10;99.90;;;;;;12468332;28;20045;-40
2021/09/30 11:43:46;;;;;;;7.10;1.75;;;13.90;99.90;;;;;;12466768;28;20148;-39
2021/09/30 11:49:48;;;;;;;7.82;1.40;;;14.30;99.90;;;;;;12468878;28;20532;-40
2021/09/30 11:56:00;;;;;;;6.85;1.38;;;14.90;99.90;;;;;;12466891;28;20665;-39
2021/09/30 12:02:07;;;;;;;10.10;1.65;;;14.60;99.90;;;;;;12484485;28;20498;-36
2021/09/30 12:08:09;;;;;;;13.75;1.98;;;15.20;99.90;;;;;;12513684;28;20140;-39
2021/09/30 12:14:12;;;;;;;10.55;1.25;;;14.80;99.90;;;;;;12482714;28;20102;-35
2021/09/30 12:20:16;;;;;;;7.60;1.50;;;14.20;99.90;;;;;;12471370;28;20099;-35
2021/09/30 12:26:18;;;;;;;14.00;2.08;;;13.90;99.90;;;;;;12514434;28;20547;-39
2021/09/30 12:32:27;;;;;;;9.32;1.80;;;14.10;99.90;;;;;;12496818;28;20384;-40
2021/09/30 12:38:29;;;;;;;8.15;1.77;;;14.00;99.90;;;;;;12464362;28;20045;-36
2021/09/30 12:44:32;;;;;;;6.50;1.38;;;14.20;99.90;;;;;;12466487;28;20049;-40
2021/09/30 12:51:00;;;;;;;7.78;1.58;;;14.10;99.90;;;;;;12464197;28;20098;-36
2021/09/30 12:57:10;;;;;;;7.88;1.60;;;14.10;99.90;;;;;;12465355;28;20112;-37
2021/09/30 13:03:16;;;;;;;9.30;1.85;;;13.70;99.90;;;;;;12464413;28;20045;-39
2021/09/30 13:09:22;;;;;;;7.00;1.48;;;13.90;99.90;;;;;;12467952;28;20626;-38
2021/09/30 13:15:41;;;;;;;6.38;1.80;;;14.00;99.90;;;;;;12463387;28;20053;-40
2021/09/30 13:22:03;;;;;;;9.20;1.85;;;14.10;99.90;;;;;;12468692;28;20801;-39
2021/09/30 13:28:05;;;;;;;7.85;1.48;;;14.40;99.90;;;;;;12476239;28;20064;-35
2021/09/30 13:34:07;;;;;;;8.13;1.48;;;14.30;99.90;;;;;;12472973;28;20107;-35
2021/09/30 13:40:10;;;;;;;6.00;1.20;;;14.50;99.90;;;;;;12474679;28;20221;-35
2021/09/30 13:46:12;;;;;;;9.32;1.30;;;14.90;99.90;;;;;;12519163;28;20164;-36
2021/09/30 13:52:14;;;;;;;6.63;1.50;;;14.90;99.90;;;;;;12503701;28;20057;-36
2021/09/30 13:58:16;;;;;;;4.72;1.40;;;14.70;99.90;;;;;;12477059;28;20042;-35
2021/09/30 14:04:17;;;;;;;7.45;1.10;;;14.60;99.90;;;;;;12504935;28;20412;-35
2021/09/30 14:10:20;;;;;;;7.75;1.15;;;14.60;99.90;;;;;;12519828;28;20060;-36
2021/09/30 14:16:24;;;;;;;4.50;1.20;;;14.60;99.90;;;;;;12473891;28;20050;-39
2021/09/30 14:22:26;;;;;;;6.13;1.42;;;14.70;99.90;;;;;;12471017;28;20053;-41
2021/09/30 14:28:28;;;;;;;7.10;1.27;;;14.80;99.90;;;;;;12471118;28;20125;-35
2021/09/30 14:34:30;;;;;;;4.88;1.02;;;14.70;99.90;;;;;;12505006;28;20045;-35
2021/09/30 14:40:32;;;;;;;4.90;1.17;;;14.40;99.90;;;;;;12515179;28;20529;-35
2021/09/30 14:46:34;;;;;;;4.97;1.02;;;14.40;99.90;;;;;;12470790;28;20054;-35
2021/09/30 14:52:36;;;;;;;5.47;1.10;;;14.30;99.90;;;;;;12470733;28;20045;-35
2021/09/30 14:58:37;;;;;;;4.07;0.90;;;14.50;99.90;;;;;;12472058;28;20053;-35
2021/09/30 15:04:40;;;;;;;6.70;1.27;;;14.30;99.90;;;;;;12468390;28;20045;-40
2021/09/30 15:10:42;;;;;;;5.55;1.10;;;14.40;99.90;;;;;;12471640;28;20156;-35
2021/09/30 15:16:54;;;;;;;6.15;1.20;;;14.30;99.90;;;;;;12469429;28;20091;-41
2021/09/30 15:22:55;;;;;;;6.05;1.10;;;14.20;99.90;;;;;;12494801;28;20049;-35
2021/09/30 15:28:58;;;;;;;5.60;1.10;;;14.00;99.90;;;;;;12515693;28;20780;-39
2021/09/30 15:35:01;;;;;;;5.40;1.00;;;13.80;99.90;;;;;;12465560;28;20092;-36
2021/09/30 15:41:03;;;;;;;6.28;1.10;;;13.70;99.90;;;;;;12457000;28;20446;-39
2021/09/30 15:47:19;;;;;;;7.03;1.13;;;13.50;99.90;;;;;;12470169;28;20060;-39
2021/09/30 15:53:21;;;;;;;5.93;1.10;;;13.60;99.90;;;;;;12499521;28;20448;-39
2021/09/30 15:59:23;;;;;;;7.10;0.95;;;13.50;99.90;;;;;;12515550;28;20083;-39
2021/09/30 16:05:25;;;;;;;3.90;0.80;;;13.50;99.90;;;;;;12476020;28;20417;-39
2021/09/30 16:11:28;;;;;;;4.93;1.00;;;13.40;99.90;;;;;;12479643;28;20219;-35
2021/09/30 16:17:30;;;;;;;3.17;0.90;;;13.30;99.90;;;;;;12515818;28;20053;-35
2021/09/30 16:23:33;;;;;;;2.85;1.20;;;13.20;99.90;;;;;;12487936;28;20131;-39
2021/09/30 16:29:34;;;;;;;4.13;1.02;;;13.10;99.90;;;;;;12469804;28;20061;-37
2021/09/30 16:35:36;;;;;;;5.50;0.93;;;13.00;99.90;;;;;;12468696;28;20565;-43
2021/09/30 16:41:38;;;;;;;6.93;1.00;;;13.00;99.90;;;;;;12467200;28;20049;-40
2021/09/30 16:47:40;;;;;;;6.97;1.20;;;13.00;99.90;;;;;;12466697;28;20060;-35
2021/09/30 16:53:42;;;;;;;5.70;0.85;;;12.90;99.90;;;;;;12465445;28;20065;-35
2021/09/30 16:59:44;;;;;;;5.32;0.80;;;12.90;99.90;;;;;;12462705;28;20065;-39
2021/09/30 17:05:45;;;;;;;4.38;1.10;;;12.90;99.90;;;;;;12512177;28;20124;-36
2021/09/30 17:11:48;;;;;;;6.03;1.02;;;12.80;99.90;;;;;;12499733;28;20140;-35
2021/09/30 17:17:50;;;;;;;7.20;1.05;;;12.80;99.90;;;;;;12465635;28;20545;-39
2021/09/30 17:23:54;;;;;;;5.53;1.02;;;12.80;99.90;;;;;;12463374;28;20049;-35
2021/09/30 17:29:56;;;;;;;7.60;1.27;;;12.70;99.90;;;;;;12462134;28;20079;-35
2021/09/30 17:35:58;;;;;;;5.32;0.95;;;12.70;99.90;;;;;;12454263;28;20076;-39
2021/09/30 17:42:01;;;;;;;3.33;1.15;;;12.60;99.90;;;;;;12480051;28;20099;-35
2021/09/30 17:48:03;;;;;;;4.28;0.90;;;12.60;99.90;;;;;;12513815;28;20048;-39
2021/09/30 17:54:05;;;;;;;4.18;1.10;;;12.50;99.90;;;;;;12480188;28;20084;-35
2021/09/30 18:00:10;;;;;;;7.28;1.10;;;12.40;99.90;;;;;;12468054;28;20049;-42
2021/09/30 18:06:12;;;;;;;5.60;1.10;;;12.30;99.90;;;;;;12464885;28;20049;-35
2021/09/30 18:12:14;;;;;;;5.45;1.10;;;12.30;99.90;;;;;;12492274;28;20049;-35
2021/09/30 18:18:17;;;;;;;4.88;1.15;;;12.10;99.90;;;;;;12523067;28;20545;-36
2021/09/30 18:24:30;;;;;;;3.90;1.05;;;12.10;99.90;;;;;;12488974;28;20053;-35
2021/09/30 18:30:32;;;;;;;3.63;1.10;;;12.00;99.90;;;;;;12479316;28;20399;-37
2021/09/30 18:36:34;;;;;;;4.15;1.00;;;11.90;99.90;;;;;;12519278;28;20053;-43
2021/09/30 18:42:36;;;;;;;5.78;1.13;;;11.90;99.90;;;;;;12498759;28;20099;-35
2021/09/30 18:48:38;;;;;;;3.72;0.80;;;11.90;99.90;;;;;;12468875;28;20058;-35
2021/09/30 18:54:40;;;;;;;4.72;1.20;;;11.90;99.90;;;;;;12506972;28;20075;-39
2021/09/30 19:00:42;;;;;;;8.18;1.40;;;11.80;99.90;;;;;;12515761;28;20041;-35
2021/09/30 19:06:45;;;;;;;5.78;1.40;;;11.90;99.90;;;;;;12471326;28;20064;-39
2021/09/30 19:12:46;;;;;;;5.03;1.30;;;11.80;99.90;;;;;;12491457;28;20402;-35
2021/09/30 19:18:48;;;;;;;5.78;1.67;;;11.70;99.90;;;;;;12517282;28;20087;-39
2021/09/30 19:24:50;;;;;;;6.03;1.30;;;11.60;99.90;;;;;;12478909;28;20053;-42
2021/09/30 19:30:54;;;;;;;4.57;1.33;;;11.50;99.90;;;;;;12475162;28;20048;-35
2021/09/30 19:36:56;;;;;;;4.57;1.17;;;11.40;99.90;;;;;;12517733;28;20168;-36
2021/09/30 19:42:58;;;;;;;5.30;1.30;;;11.40;99.90;;;;;;12481958;28;20064;-36
2021/09/30 19:49:00;;;;;;;6.03;1.30;;;11.40;99.90;;;;;;12449926;28;20053;-39
2021/09/30 19:55:04;;;;;;;7.20;1.10;;;11.40;99.90;;;;;;12500929;28;20037;-35
2021/09/30 20:01:08;;;;;;;6.68;1.27;;;11.30;99.90;;;;;;12507810;28;20041;-40
2021/09/30 20:07:10;;;;;;;4.07;1.03;;;11.40;99.90;;;;;;12467533;28;20053;-36
2021/09/30 20:13:30;;;;;;;4.97;1.15;;;11.30;99.90;;;;;;12464310;28;20091;-41
2021/09/30 20:19:32;;;;;;;5.50;1.15;;;11.40;99.90;;;;;;12468204;28;20107;-40
2021/09/30 20:25:34;;;;;;;6.53;1.05;;;11.40;99.90;;;;;;12510100;28;20052;-35
2021/09/30 20:31:37;;;;;;;3.30;0.90;;;11.40;99.90;;;;;;12511517;28;20053;-39
2021/09/30 20:37:40;;;;;;;4.70;1.05;;;11.40;99.90;;;;;;12515541;28;20049;-39
2021/09/30 20:43:42;;;;;;;4.57;0.90;;;11.40;99.90;;;;;;12485966;28;20049;-35
2021/09/30 20:49:43;;;;;;;3.88;1.10;;;11.40;99.90;;;;;;12467711;28;20506;-40
2021/09/30 20:55:45;;;;;;;3.05;0.90;;;11.40;99.90;;;;;;12508745;28;20086;-39
2021/09/30 21:01:48;;;;;;;4.05;0.80;;;11.50;99.90;;;;;;12498791;28;20045;-40
2021/09/30 21:07:50;;;;;;;5.75;1.10;;;11.40;99.90;;;;;;12464260;28;20073;-36
2021/09/30 21:13:52;;;;;;;5.60;1.13;;;11.40;99.90;;;;;;12464410;28;20118;-38
2021/09/30 21:19:54;;;;;;;9.77;1.23;;;11.40;99.90;;;;;;12463728;28;20053;-39
2021/09/30 21:25:56;;;;;;;2.90;1.15;;;11.40;99.90;;;;;;12465836;28;20064;-39
2021/09/30 21:31:57;;;;;;;5.68;1.08;;;11.40;99.90;;;;;;12464858;28;20053;-39
2021/09/30 21:38:00;;;;;;;6.45;1.00;;;11.40;99.90;;;;;;12465714;28;20494;-40
2021/09/30 21:44:02;;;;;;;6.97;1.30;;;11.30;99.90;;;;;;12469029;28;20053;-35
2021/09/30 21:50:05;;;;;;;7.03;1.33;;;11.30;99.90;;;;;;12474377;28;20050;-40
2021/09/30 21:56:07;;;;;;;5.55;1.45;;;11.30;99.90;;;;;;12521252;28;20056;-41
2021/09/30 22:02:10;;;;;;;7.28;1.40;;;11.30;99.90;;;;;;12505030;28;20099;-36
2021/09/30 22:08:14;;;;;;;3.87;1.20;;;11.30;99.90;;;;;;12474124;28;20045;-36
2021/09/30 22:14:16;;;;;;;4.40;0.90;;;11.30;99.90;;;;;;12507211;28;20057;-39
2021/09/30 22:20:18;;;;;;;2.80;1.00;;;11.30;99.90;;;;;;12517141;28;20110;-39
2021/09/30 22:26:20;;;;;;;8.00;1.20;;;11.20;99.90;;;;;;12521888;28;20053;-39
2021/09/30 22:32:21;;;;;;;6.47;1.08;;;11.20;99.90;;;;;;12498484;28;20046;-41
2021/09/30 22:38:24;;;;;;;3.42;1.00;;;11.30;99.90;;;;;;12472815;28;20075;-39
2021/09/30 22:44:25;;;;;;;6.07;1.23;;;11.20;99.90;;;;;;12504793;28;20114;-41
2021/09/30 22:50:28;;;;;;;8.25;1.10;;;11.20;99.90;;;;;;12514698;28;20053;-37
2021/09/30 22:56:29;;;;;;;4.20;1.10;;;11.30;99.90;;;;;;12470135;28;20042;-37
2021/09/30 23:02:31;;;;;;;7.57;1.13;;;11.30;99.90;;;;;;12489381;28;20056;-41
2021/09/30 23:08:33;;;;;;;4.65;0.90;;;11.30;99.90;;;;;;12519458;28;20052;-35
2021/09/30 23:14:35;;;;;;;6.47;1.10;;;11.20;99.90;;;;;;12482501;28;20575;-40
2021/09/30 23:20:37;;;;;;;6.10;0.95;;;11.20;99.90;;;;;;12474076;28;20062;-35
2021/09/30 23:26:39;;;;;;;5.47;1.13;;;11.20;99.90;;;;;;12518027;28;20880;-35
2021/09/30 23:32:41;;;;;;;3.10;0.95;;;11.20;99.90;;;;;;12516577;28;20552;-39
2021/09/30 23:38:43;;;;;;;5.15;1.30;;;11.20;99.90;;;;;;12515062;28;20044;-41
2021/09/30 23:44:45;;;;;;;4.25;1.08;;;11.20;99.90;;;;;;12478196;28;20180;-38
2021/09/30 23:50:47;;;;;;;4.35;0.80;;;11.30;99.90;;;;;;12474348;28;20533;-35
2021/09/30 23:56:50;;;;;;;5.22;1.05;;;11.20;99.90;;;;;;12516031;28;20098;-39
